Skip Navigation Links Skip Navigation Links

Current Weather

Maraba, Brazil

For information only: do not use for flight planning or navigation.
Latest weather
Observation time Thursday, June 21, 2018 6:00 PM BRT
Local time Thursday, June 21, 2018 6:53 PM BRT
Flight conditions Visual Meteorological Conditions
Winds
Wind direction East-Northeast (70°)
Wind speed 5 mph
Visibility 6.2 mi.
Sky condition
Ceiling unlimited
Cloud layer few clouds 2,200 ft.
Temperature 90°F
Dewpoint 61°F
Altimeter 29.94 in.Hg
Derived measurements
Relative humidity 38%
Heat index 90°F
Density altitude 2166 ft.
METAR SBMA 212100Z 07004KT 9999 FEW022 32/16 Q1014

Settings

Location code

InnerDrive.Weather 4.0.6615.0 Release CLR 4.0.30319.42000
Copyright ©2018 Inner Drive Technology. All rights reserved. Portions Copyright ©1986-2018 David Braverman.

Find weather

Site navigation


Skip Navigation Links

Place info

Page info

PayPal - The safer, easier way to pay online!

Return home.

Copyright ©2018 Inner Drive Technology. Purveyors of fine, hand-crafted computer software. Page printed 2018-06-21T21:53:03 UTC.